Weather at Keflavik International Airport

Public forecast

Using degrees Celsius for public forecast. Weather courtesy of forecast.io.

Current aviation weather report (METAR) for Keflavik International Airport

Retrieved 2022/01/29 07:30 UTC (26 minutes ago):

BIKF 290730Z 34006KT 300V010 CAVOK M03/M10 Q1017

Aviation forecast (TAF) for Keflavik International Airport

Retrieved 2022/01/29 09:01 UTC (0 seconds ago):

TAF BIKF 290759Z 2909/3009 35008KT CAVOK TX02/2916Z TNM06/2910Z BECMG 2912/2914 21015KT 9999 BKN035 TEMPO 2912/2915 3500 -SHSN BKN015 TEMPO 2915/3009 22020G30KT 1500 SHSN BKN010CB